Main page
METAR-TAF:

METAR-TAF

Airports :

Algeciras Heliport

Algeciras, Spain

latitude: 36-07-44N, longitude: 05-26-28W, elevation: 30 m

Current weather observation

The report was made 17 minutes ago, at 20:00 UTC
Wind 16 kt from the East with gusts up to 26 kt, varying between East/Northeast and Southeast
Temperature 14°C
Humidity 67%
Pressure 1023 hPa
Visibility 10 km or more
Broken clouds at a height of 2900 ft

METAR: LEAG 212000Z AUTO 10016G26KT 070V130 9999 BKN029 14/08 Q1023

Time: 21:17 (20:17 UTC)

Forecast

The report was made 6 hours and 17 minutes ago, at 14:00 UTC
Forecast valid from 21 at 15 UTC to 22 at 15 UTC
Wind 14 kt from the East
Visibility 10 km or more
Scattered clouds at a height of 2000 ft
Temporary
from 21 at 22 UTC to 22 at 15 UTC
Wind 20 kt from the East with gusts up to 32 kt

TAF: LEAG 211400Z 2115/2215 09014KT 9999 SCT020 TX15/2115Z TN12/2207Z TEMPO 2122/2215 10020G32KT

Weather observations and forecasts of more than 4000 airports (METAR and TAF reports).

The available stations are represented by yellow and red dots on the map.

Hover mouse over dot to see the name of the station.

Then click to see weather observations and forecasts.

To change the map : click on the green buttons with a black cross to zoom in, on the green button with a dash to zoom out, or on the green arrows for adjacent maps.


METAR-TAF: